Time;durP1;ratioP1;P1;durP2;ratioP2;P2;SDS_P1;SDS_P2;PMS_P1;PMS_P2;Temp;Humidity;BMP_temperature;BMP_pressure;BME280_temperature;BME280_humidity;BME280_pressure;Samples;Min_cycle;Max_cycle;Signal;HPM_P1;HPM_P2
2024/02/21 00:02:06;;;;;;;8.03;3.97;;;8.40;99.90;;;;;;5044364;28;20310;-75
2024/02/21 00:04:31;;;;;;;9.30;4.27;;;8.40;99.90;;;;;;5031232;28;20289;-75
2024/02/21 00:06:57;;;;;;;8.60;4.20;;;8.30;99.90;;;;;;5050632;28;20251;-76
2024/02/21 00:09:22;;;;;;;9.07;4.20;;;8.30;99.90;;;;;;5044879;28;20232;-75
2024/02/21 00:11:48;;;;;;;6.47;3.67;;;8.30;99.90;;;;;;5042517;28;20227;-75
2024/02/21 00:14:14;;;;;;;5.90;3.90;;;8.40;99.90;;;;;;5045404;28;20217;-75
2024/02/21 00:16:42;;;;;;;6.80;3.33;;;8.30;99.90;;;;;;5047301;28;20633;-75
2024/02/21 00:19:08;;;;;;;3.80;3.40;;;8.30;99.90;;;;;;5045031;28;20224;-75
2024/02/21 00:21:34;;;;;;;4.80;3.40;;;8.40;99.90;;;;;;5043921;28;20454;-74
2024/02/21 00:24:00;;;;;;;6.20;3.73;;;8.30;99.90;;;;;;5044572;28;20471;-76
2024/02/21 00:26:25;;;;;;;8.90;4.00;;;8.30;99.90;;;;;;5044982;28;20215;-74
2024/02/21 00:28:51;;;;;;;5.70;3.77;;;8.30;99.90;;;;;;5028635;28;20242;-75
2024/02/21 00:31:17;;;;;;;9.90;4.53;;;8.40;99.90;;;;;;5031648;28;20227;-75
2024/02/21 00:33:43;;;;;;;4.13;3.70;;;8.40;99.90;;;;;;5026989;28;20303;-74
2024/02/21 00:36:08;;;;;;;10.70;3.77;;;8.40;99.90;;;;;;5029016;28;20219;-75
2024/02/21 00:38:34;;;;;;;8.90;4.40;;;8.30;99.90;;;;;;5045817;28;20223;-75
2024/02/21 00:41:00;;;;;;;16.20;4.07;;;8.30;99.90;;;;;;5044744;28;20269;-75
2024/02/21 00:43:25;;;;;;;7.83;4.10;;;8.30;99.90;;;;;;5044883;28;20299;-74
2024/02/21 00:45:51;;;;;;;6.60;4.20;;;8.40;99.90;;;;;;5044834;28;20232;-75
2024/02/21 00:48:17;;;;;;;10.83;4.10;;;8.40;99.90;;;;;;5045037;28;20220;-74
2024/02/21 00:50:42;;;;;;;9.73;4.30;;;8.20;99.90;;;;;;5045696;28;20685;-74
2024/02/21 00:53:09;;;;;;;6.27;3.50;;;8.20;99.90;;;;;;5028721;28;20212;-74
2024/02/21 00:55:35;;;;;;;6.20;3.93;;;8.30;99.90;;;;;;5044373;28;20692;-75
2024/02/21 00:58:01;;;;;;;8.30;4.07;;;8.30;99.90;;;;;;5046299;28;20454;-74
2024/02/21 01:00:27;;;;;;;7.10;4.60;;;8.30;99.90;;;;;;5028255;28;20272;-74
2024/02/21 01:02:52;;;;;;;13.70;3.80;;;8.20;99.90;;;;;;5040869;28;20207;-75
2024/02/21 01:05:19;;;;;;;6.80;3.37;;;8.20;99.90;;;;;;5044228;28;20223;-74
2024/02/21 01:07:45;;;;;;;7.47;4.40;;;8.20;99.90;;;;;;5043745;28;20220;-74
2024/02/21 01:10:10;;;;;;;8.90;3.27;;;8.10;99.90;;;;;;5043948;28;20998;-75
2024/02/21 01:12:36;;;;;;;5.77;4.00;;;8.10;99.90;;;;;;5043469;28;20779;-75
2024/02/21 01:15:02;;;;;;;13.47;4.20;;;8.00;99.90;;;;;;5042087;28;20230;-74
2024/02/21 01:17:28;;;;;;;6.80;3.53;;;8.00;99.90;;;;;;5044722;28;20347;-73
2024/02/21 01:19:54;;;;;;;6.50;4.10;;;8.00;99.90;;;;;;5039767;28;20558;-74
2024/02/21 01:22:19;;;;;;;14.00;3.60;;;8.00;99.90;;;;;;5043002;28;20207;-75
2024/02/21 01:24:45;;;;;;;11.47;4.10;;;7.90;99.90;;;;;;5045299;28;20223;-74
2024/02/21 01:27:11;;;;;;;8.73;4.60;;;8.00;99.90;;;;;;5046237;28;20208;-74
2024/02/21 01:29:37;;;;;;;4.90;3.23;;;8.00;99.90;;;;;;5046430;28;20234;-74
2024/02/21 01:32:03;;;;;;;9.10;3.50;;;8.00;99.90;;;;;;5042803;28;20474;-74
2024/02/21 01:34:28;;;;;;;5.93;3.70;;;8.00;99.90;;;;;;5045150;28;20289;-74
2024/02/21 01:36:54;;;;;;;4.33;3.20;;;8.10;99.90;;;;;;5042738;28;20225;-74
2024/02/21 01:39:19;;;;;;;4.60;2.73;;;8.20;99.90;;;;;;5044678;28;20231;-74
2024/02/21 01:41:45;;;;;;;4.63;2.83;;;8.30;99.90;;;;;;5046828;28;20223;-74
2024/02/21 01:44:11;;;;;;;7.90;2.87;;;8.30;99.90;;;;;;5043983;28;20220;-74
2024/02/21 01:46:36;;;;;;;8.30;3.40;;;8.40;99.90;;;;;;5045665;28;20223;-74
2024/02/21 01:49:02;;;;;;;9.40;3.60;;;8.40;99.90;;;;;;5043418;28;20227;-74
2024/02/21 01:51:28;;;;;;;7.10;3.07;;;8.40;99.90;;;;;;5043206;28;20235;-74
2024/02/21 01:53:56;;;;;;;5.20;2.93;;;8.50;99.90;;;;;;5027003;28;20278;-74
2024/02/21 01:56:22;;;;;;;7.10;3.17;;;8.50;99.90;;;;;;5045146;28;20247;-74
2024/02/21 01:58:48;;;;;;;9.90;3.33;;;8.40;99.90;;;;;;5042074;28;20981;-74
2024/02/21 02:01:14;;;;;;;3.50;3.03;;;8.40;99.90;;;;;;5029781;28;20447;-74
2024/02/21 02:03:40;;;;;;;3.70;2.77;;;8.50;99.90;;;;;;5041537;28;20447;-74
2024/02/21 02:06:06;;;;;;;9.03;3.50;;;8.40;99.90;;;;;;5044555;28;20294;-74
2024/02/21 02:08:32;;;;;;;3.33;3.00;;;8.30;99.90;;;;;;5024023;28;20515;-74
2024/02/21 02:10:59;;;;;;;6.60;3.60;;;8.30;99.90;;;;;;5042331;28;20613;-74
2024/02/21 02:13:25;;;;;;;5.33;2.80;;;8.30;99.90;;;;;;5041837;28;20473;-73
2024/02/21 02:15:51;;;;;;;5.47;2.80;;;8.30;99.90;;;;;;5042522;28;20467;-74
2024/02/21 02:18:18;;;;;;;8.77;4.00;;;8.30;99.90;;;;;;5046521;28;20238;-73
2024/02/21 02:20:45;;;;;;;8.20;2.97;;;8.20;99.90;;;;;;5044447;28;20219;-74
2024/02/21 02:23:33;;;;;;;7.40;3.30;;;8.20;99.90;;;;;;5060954;28;20453;-73
2024/02/21 02:26:00;;;;;;;6.87;3.20;;;8.30;99.90;;;;;;5047010;28;20438;-75
2024/02/21 02:28:26;;;;;;;8.30;4.23;;;8.30;99.90;;;;;;5048088;28;20449;-74
2024/02/21 02:30:52;;;;;;;4.03;2.60;;;8.30;99.90;;;;;;5044997;28;20483;-75
2024/02/21 02:33:18;;;;;;;3.83;3.40;;;8.40;99.90;;;;;;5047486;28;20550;-74
2024/02/21 02:35:44;;;;;;;8.87;3.57;;;8.40;99.90;;;;;;5045745;28;20233;-74
2024/02/21 02:38:11;;;;;;;6.33;3.00;;;8.50;99.90;;;;;;5042663;28;20218;-75
2024/02/21 02:40:38;;;;;;;9.17;3.50;;;8.50;99.90;;;;;;5042593;28;20243;-75
2024/02/21 02:43:04;;;;;;;5.37;3.23;;;8.50;99.90;;;;;;5044402;28;20516;-75
2024/02/21 02:45:31;;;;;;;4.93;3.23;;;8.50;99.90;;;;;;5043396;28;20450;-74
2024/02/21 02:47:57;;;;;;;5.17;3.77;;;8.50;99.90;;;;;;5046596;28;20224;-74
2024/02/21 02:50:27;;;;;;;5.43;3.20;;;8.50;99.90;;;;;;5026174;28;20466;-75
2024/02/21 02:52:53;;;;;;;7.33;3.50;;;8.50;99.90;;;;;;5039967;28;20234;-74
2024/02/21 02:55:19;;;;;;;5.40;3.00;;;8.50;99.90;;;;;;5042035;28;20553;-75
2024/02/21 02:57:45;;;;;;;7.57;3.50;;;8.50;99.90;;;;;;5044525;28;20532;-74
2024/02/21 03:00:12;;;;;;;8.40;3.83;;;8.50;99.90;;;;;;5027285;28;20314;-75
2024/02/21 03:02:40;;;;;;;8.10;3.17;;;8.40;99.90;;;;;;5043983;28;20227;-74
2024/02/21 03:05:19;;;;;;;8.23;3.67;;;8.40;99.90;;;;;;5026492;28;20504;-74
2024/02/21 03:07:45;;;;;;;3.30;3.00;;;8.40;99.90;;;;;;5027036;28;20473;-75
2024/02/21 03:10:11;;;;;;;7.30;3.80;;;8.40;99.90;;;;;;5046657;28;20462;-75
2024/02/21 03:12:38;;;;;;;8.70;3.73;;;8.50;99.90;;;;;;5045738;28;20466;-74
2024/02/21 03:15:04;;;;;;;7.90;2.83;;;8.50;99.90;;;;;;5043298;28;20515;-74
2024/02/21 03:17:31;;;;;;;3.40;2.70;;;8.50;99.90;;;;;;5028913;28;20446;-75
2024/02/21 03:19:57;;;;;;;5.90;3.70;;;8.50;99.90;;;;;;5044967;28;20455;-74
2024/02/21 03:22:22;;;;;;;5.20;2.90;;;8.50;99.90;;;;;;5031705;28;20460;-74
2024/02/21 03:24:49;;;;;;;11.20;3.20;;;8.50;99.90;;;;;;5049361;28;20658;-74
2024/02/21 03:27:14;;;;;;;4.83;3.37;;;8.50;99.90;;;;;;5045834;28;20286;-74
2024/02/21 03:29:40;;;;;;;6.93;3.93;;;8.50;99.90;;;;;;5046134;28;21020;-75
2024/02/21 03:32:05;;;;;;;3.97;3.20;;;8.50;99.90;;;;;;5044980;28;20240;-74
2024/02/21 03:34:31;;;;;;;5.40;3.07;;;8.50;99.90;;;;;;5048562;28;20227;-74
2024/02/21 03:36:57;;;;;;;4.50;2.97;;;8.50;99.90;;;;;;5044961;28;20228;-74
2024/02/21 03:39:22;;;;;;;4.30;2.93;;;8.40;99.90;;;;;;5047438;28;20246;-74
2024/02/21 03:41:48;;;;;;;7.10;3.20;;;8.50;99.90;;;;;;5047137;28;20311;-75
2024/02/21 03:44:14;;;;;;;5.30;3.50;;;8.50;99.90;;;;;;5043987;28;20213;-74
2024/02/21 03:46:39;;;;;;;4.80;3.33;;;8.40;99.90;;;;;;5025042;28;20633;-74
2024/02/21 03:49:05;;;;;;;10.70;4.00;;;8.40;99.90;;;;;;5043736;28;20282;-74
2024/02/21 03:51:31;;;;;;;8.33;4.70;;;8.40;99.90;;;;;;5033191;28;20223;-74
2024/02/21 03:53:56;;;;;;;8.77;4.20;;;8.30;99.90;;;;;;5046108;28;20240;-74
2024/02/21 03:56:22;;;;;;;4.50;3.40;;;8.20;99.90;;;;;;5046147;28;20220;-75
2024/02/21 03:58:48;;;;;;;8.03;4.33;;;8.20;99.90;;;;;;5043588;28;20247;-74
2024/02/21 04:01:15;;;;;;;5.73;3.47;;;8.20;99.90;;;;;;5025712;28;20301;-74
2024/02/21 04:03:41;;;;;;;9.90;4.70;;;8.30;99.90;;;;;;5047126;28;20247;-74
2024/02/21 04:06:07;;;;;;;7.80;3.90;;;8.20;99.90;;;;;;5031431;28;20462;-74
2024/02/21 04:08:33;;;;;;;8.23;4.20;;;8.00;99.90;;;;;;5042580;28;20451;-74
2024/02/21 04:10:59;;;;;;;4.00;3.07;;;8.00;99.90;;;;;;5046217;28;20474;-74
2024/02/21 04:13:25;;;;;;;5.33;3.90;;;8.10;99.90;;;;;;5046652;28;20208;-74
2024/02/21 04:15:51;;;;;;;6.37;4.07;;;8.20;99.90;;;;;;5043553;28;20227;-74
2024/02/21 04:18:16;;;;;;;5.70;3.87;;;8.20;99.90;;;;;;5046189;28;20827;-74
2024/02/21 04:20:42;;;;;;;7.50;3.90;;;8.10;99.90;;;;;;5049118;28;20246;-74
2024/02/21 04:23:08;;;;;;;8.10;3.60;;;8.10;99.90;;;;;;5046162;28;20565;-75
2024/02/21 04:25:33;;;;;;;5.17;3.00;;;8.20;99.90;;;;;;5045727;28;20210;-74
2024/02/21 04:27:59;;;;;;;6.50;4.00;;;8.20;99.90;;;;;;5026618;28;20204;-74
2024/02/21 04:30:25;;;;;;;8.57;3.50;;;8.30;99.90;;;;;;5048183;28;20223;-74
2024/02/21 04:32:51;;;;;;;7.53;3.50;;;8.30;99.90;;;;;;5044495;28;20239;-74
2024/02/21 04:35:17;;;;;;;8.30;4.10;;;8.30;99.90;;;;;;5046089;28;20279;-75
2024/02/21 04:37:42;;;;;;;7.83;3.70;;;8.30;99.90;;;;;;5048190;28;20317;-75
2024/02/21 04:40:09;;;;;;;4.63;3.40;;;8.30;99.90;;;;;;5028414;28;20553;-75
2024/02/21 04:42:34;;;;;;;5.63;3.40;;;8.30;99.90;;;;;;5047494;28;20691;-74
2024/02/21 04:45:00;;;;;;;7.57;3.60;;;8.30;99.90;;;;;;5058918;28;20479;-74
2024/02/21 04:47:27;;;;;;;4.20;3.50;;;8.30;99.90;;;;;;5044486;28;20233;-74
2024/02/21 04:49:52;;;;;;;9.60;3.83;;;8.30;99.90;;;;;;5048361;28;20223;-74
2024/02/21 04:52:18;;;;;;;9.07;4.20;;;8.40;99.90;;;;;;5029514;28;20464;-74
2024/02/21 04:54:44;;;;;;;8.17;4.63;;;8.30;99.90;;;;;;5046306;28;20227;-75
2024/02/21 04:57:10;;;;;;;11.90;4.20;;;8.30;99.90;;;;;;5042926;28;20213;-74
2024/02/21 04:59:36;;;;;;;7.10;4.53;;;8.20;99.90;;;;;;5047722;28;20234;-74
2024/02/21 05:02:02;;;;;;;13.03;5.33;;;8.10;99.90;;;;;;5045791;28;20541;-75
2024/02/21 05:04:28;;;;;;;7.90;4.77;;;8.20;99.90;;;;;;5028065;28;20474;-74
2024/02/21 05:06:54;;;;;;;7.10;4.30;;;8.20;99.90;;;;;;5047301;28;20463;-74
2024/02/21 05:09:20;;;;;;;7.63;4.37;;;8.20;99.90;;;;;;5026594;28;20270;-74
2024/02/21 05:11:46;;;;;;;7.37;4.03;;;8.20;99.90;;;;;;5040942;28;20979;-75
2024/02/21 05:14:11;;;;;;;7.77;5.50;;;8.00;99.90;;;;;;5039599;28;20239;-75
2024/02/21 05:16:39;;;;;;;8.03;4.47;;;7.90;99.90;;;;;;5043226;28;20278;-74
2024/02/21 05:19:05;;;;;;;8.83;4.53;;;7.80;99.90;;;;;;5044122;28;20219;-74
2024/02/21 05:21:31;;;;;;;12.30;4.67;;;7.80;99.90;;;;;;5041995;28;20839;-75
2024/02/21 05:23:56;;;;;;;9.50;4.30;;;7.80;99.90;;;;;;5058716;28;20277;-74
2024/02/21 05:26:24;;;;;;;8.23;4.30;;;7.80;99.90;;;;;;5043741;28;20272;-75
2024/02/21 05:28:50;;;;;;;6.93;4.40;;;7.90;99.90;;;;;;5029166;28;20235;-75
2024/02/21 05:31:19;;;;;;;8.43;4.80;;;7.80;99.90;;;;;;5027275;28;20466;-75
2024/02/21 05:33:45;;;;;;;4.27;3.70;;;7.80;99.90;;;;;;5044607;28;20588;-74
2024/02/21 05:36:11;;;;;;;8.20;4.83;;;7.60;99.90;;;;;;5043069;28;20455;-76
2024/02/21 05:38:37;;;;;;;7.90;4.23;;;7.60;99.90;;;;;;5038805;28;20529;-75
2024/02/21 05:41:03;;;;;;;7.80;4.40;;;7.50;99.90;;;;;;5042063;28;21104;-75
2024/02/21 05:43:29;;;;;;;13.63;4.80;;;7.40;99.90;;;;;;5044729;28;20542;-74
2024/02/21 05:45:55;;;;;;;14.57;5.10;;;7.30;99.90;;;;;;5029693;28;20592;-74
2024/02/21 05:48:22;;;;;;;9.23;4.00;;;7.30;99.90;;;;;;5044877;28;20234;-75
2024/02/21 05:50:48;;;;;;;6.97;4.23;;;7.30;99.90;;;;;;5045953;28;20223;-75
2024/02/21 05:53:13;;;;;;;8.63;5.10;;;7.30;99.90;;;;;;5044198;28;20455;-75
2024/02/21 05:55:40;;;;;;;6.20;4.00;;;7.20;99.90;;;;;;5044782;28;20236;-75
2024/02/21 05:58:13;;;;;;;9.17;5.80;;;7.30;99.90;;;;;;5045512;28;20300;-74
2024/02/21 06:00:39;;;;;;;5.33;4.60;;;7.20;99.90;;;;;;5041600;28;20553;-74
2024/02/21 06:03:05;;;;;;;7.67;5.10;;;7.30;99.90;;;;;;5044305;28;20455;-73
2024/02/21 06:05:31;;;;;;;10.83;4.80;;;7.40;99.90;;;;;;5043705;28;20535;-75
2024/02/21 06:07:57;;;;;;;7.57;5.23;;;7.40;99.90;;;;;;5042931;28;20878;-75
2024/02/21 06:10:23;;;;;;;10.07;5.83;;;7.50;99.90;;;;;;5042462;28;20497;-74
2024/02/21 06:12:48;;;;;;;8.67;6.03;;;7.50;99.90;;;;;;5043688;28;20227;-75
2024/02/21 06:15:14;;;;;;;9.30;6.23;;;7.30;99.90;;;;;;5058761;28;20236;-75
2024/02/21 06:17:40;;;;;;;10.60;6.70;;;7.30;99.90;;;;;;5048047;28;20238;-75
2024/02/21 06:20:06;;;;;;;16.20;8.20;;;7.40;99.90;;;;;;5044657;28;20251;-75
2024/02/21 06:22:32;;;;;;;14.70;7.33;;;7.30;99.90;;;;;;5047423;28;20212;-75
2024/02/21 06:24:58;;;;;;;19.80;7.37;;;7.30;99.90;;;;;;5026976;28;20497;-75
2024/02/21 06:27:24;;;;;;;12.73;6.73;;;7.20;99.90;;;;;;5044077;28;20243;-75
2024/02/21 06:29:50;;;;;;;10.50;5.90;;;7.20;99.90;;;;;;5026356;28;20471;-75
2024/02/21 06:32:15;;;;;;;13.37;7.20;;;7.10;99.90;;;;;;5041604;28;20902;-75
2024/02/21 06:34:41;;;;;;;12.83;7.10;;;7.10;99.90;;;;;;5028350;28;20231;-74
2024/02/21 06:37:06;;;;;;;15.53;7.30;;;7.10;99.90;;;;;;5040624;28;20209;-75
2024/02/21 06:39:32;;;;;;;20.27;6.90;;;7.00;99.90;;;;;;5046060;28;20299;-75
2024/02/21 06:41:58;;;;;;;11.10;6.43;;;7.00;99.90;;;;;;5044494;28;20308;-75
2024/02/21 06:44:23;;;;;;;15.23;6.40;;;7.00;99.90;;;;;;5030714;28;20669;-75
2024/02/21 06:46:49;;;;;;;13.47;6.03;;;7.00;99.90;;;;;;5044989;28;20221;-75
2024/02/21 06:49:15;;;;;;;12.23;6.10;;;7.00;99.90;;;;;;5047137;28;20244;-74
2024/02/21 06:51:44;;;;;;;9.67;6.00;;;6.90;99.90;;;;;;5050453;28;20369;-75
2024/02/21 06:54:10;;;;;;;9.93;5.70;;;6.90;99.90;;;;;;5049239;28;20447;-73
2024/02/21 06:56:37;;;;;;;11.83;5.70;;;6.90;99.90;;;;;;5067330;28;20457;-75
2024/02/21 06:59:03;;;;;;;11.80;5.40;;;6.90;99.90;;;;;;5048479;28;20262;-75
2024/02/21 07:01:30;;;;;;;15.87;6.57;;;6.90;99.90;;;;;;5046180;28;20463;-76
2024/02/21 07:03:56;;;;;;;13.20;5.70;;;7.10;99.90;;;;;;5064413;28;21043;-75
2024/02/21 07:06:22;;;;;;;11.13;5.20;;;7.00;99.90;;;;;;5042498;28;20844;-75
2024/02/21 07:08:47;;;;;;;11.13;5.83;;;7.00;99.90;;;;;;5030583;28;20470;-75
2024/02/21 07:11:13;;;;;;;11.33;5.40;;;7.00;99.90;;;;;;5028750;28;20527;-75
2024/02/21 07:13:39;;;;;;;8.27;4.47;;;7.20;99.90;;;;;;5044906;28;20216;-75
2024/02/21 07:16:05;;;;;;;6.37;4.40;;;7.20;99.90;;;;;;5051046;28;20820;-75
2024/02/21 07:18:31;;;;;;;11.20;5.57;;;7.30;99.90;;;;;;5049633;28;20216;-76
2024/02/21 07:20:58;;;;;;;8.83;4.40;;;7.30;99.90;;;;;;5047663;28;20530;-75
2024/02/21 07:23:24;;;;;;;7.60;4.07;;;7.30;99.90;;;;;;5046178;28;20215;-75
2024/02/21 07:25:49;;;;;;;6.57;4.07;;;7.30;99.90;;;;;;5049727;28;20462;-75
2024/02/21 07:28:16;;;;;;;7.20;3.70;;;7.40;99.90;;;;;;5044237;28;20247;-75
2024/02/21 07:30:42;;;;;;;8.57;5.43;;;7.50;99.90;;;;;;5044541;28;20301;-74
2024/02/21 07:33:07;;;;;;;7.50;4.20;;;7.40;99.90;;;;;;5046492;28;20498;-75
2024/02/21 07:35:33;;;;;;;8.47;3.80;;;7.50;99.90;;;;;;5049638;28;20216;-74
2024/02/21 07:37:59;;;;;;;7.40;4.10;;;7.40;99.90;;;;;;5036401;28;20218;-75
2024/02/21 07:40:25;;;;;;;7.93;4.00;;;7.40;99.90;;;;;;5045890;28;20235;-74
2024/02/21 07:42:50;;;;;;;7.27;3.63;;;7.40;99.90;;;;;;5049464;28;20227;-75
2024/02/21 07:45:16;;;;;;;7.90;4.27;;;7.40;99.90;;;;;;5045844;28;20215;-75
2024/02/21 07:47:41;;;;;;;7.37;3.83;;;7.50;99.90;;;;;;5049021;28;20216;-76
2024/02/21 07:50:08;;;;;;;5.60;2.53;;;7.60;99.90;;;;;;5033592;28;20299;-75
2024/02/21 07:52:33;;;;;;;5.00;3.90;;;7.60;99.90;;;;;;5049867;28;20228;-75
2024/02/21 07:54:59;;;;;;;3.67;3.30;;;7.60;99.90;;;;;;5028194;28;20474;-75
2024/02/21 07:57:25;;;;;;;8.47;3.57;;;7.60;99.90;;;;;;5066274;28;20274;-75
2024/02/21 07:59:50;;;;;;;4.13;2.93;;;7.60;99.90;;;;;;5045830;28;20216;-75
2024/02/21 08:02:17;;;;;;;5.37;2.83;;;7.50;99.90;;;;;;5025203;28;20653;-75
2024/02/21 08:04:43;;;;;;;3.00;2.10;;;7.50;99.90;;;;;;5045340;28;20553;-75
2024/02/21 08:07:09;;;;;;;7.47;3.00;;;7.50;99.90;;;;;;5046109;28;20234;-75
2024/02/21 08:09:37;;;;;;;10.03;3.70;;;7.60;99.90;;;;;;5044464;28;20229;-75
2024/02/21 08:12:04;;;;;;;6.00;3.90;;;7.60;99.90;;;;;;5045961;28;20471;-75
2024/02/21 08:14:30;;;;;;;4.30;2.90;;;7.60;99.90;;;;;;5061885;28;20483;-74
2024/02/21 08:16:55;;;;;;;2.90;2.70;;;7.60;99.90;;;;;;5044383;28;20500;-75
2024/02/21 08:19:22;;;;;;;5.10;3.00;;;7.60;99.90;;;;;;5045814;28;20227;-74
2024/02/21 08:21:48;;;;;;;4.80;2.30;;;7.60;99.90;;;;;;5047529;28;20223;-75
2024/02/21 08:24:17;;;;;;;10.33;3.33;;;7.60;99.90;;;;;;5046046;28;20874;-75
2024/02/21 08:26:47;;;;;;;8.20;3.10;;;7.70;99.90;;;;;;5043796;28;20524;-75
2024/02/21 08:29:12;;;;;;;4.00;2.90;;;7.70;99.90;;;;;;5043825;28;20490;-75
2024/02/21 08:31:38;;;;;;;4.57;2.50;;;7.60;99.90;;;;;;5065178;28;20509;-74
2024/02/21 08:34:04;;;;;;;5.00;2.20;;;7.70;99.90;;;;;;5044644;28;20209;-74
2024/02/21 08:36:31;;;;;;;7.33;3.20;;;7.80;99.90;;;;;;5045424;28;20221;-75
2024/02/21 08:38:57;;;;;;;6.37;3.10;;;7.70;99.90;;;;;;5044413;28;20468;-75
2024/02/21 08:41:26;;;;;;;4.47;3.10;;;7.70;99.90;;;;;;5041678;28;20493;-75
2024/02/21 08:43:53;;;;;;;6.47;3.47;;;7.70;99.90;;;;;;5042980;28;20243;-75
2024/02/21 08:46:28;;;;;;;4.23;2.80;;;7.80;99.90;;;;;;5043490;28;20463;-75
2024/02/21 08:48:54;;;;;;;5.00;3.03;;;7.70;99.90;;;;;;5043276;28;20478;-75
2024/02/21 08:51:20;;;;;;;6.77;3.00;;;7.80;99.90;;;;;;5043706;28;20482;-75
2024/02/21 08:53:46;;;;;;;3.50;3.20;;;7.80;99.90;;;;;;5042579;28;20318;-75
2024/02/21 08:56:12;;;;;;;7.73;3.50;;;7.80;99.90;;;;;;5043687;28;20477;-75
2024/02/21 08:58:39;;;;;;;4.50;2.63;;;7.90;99.90;;;;;;5027785;28;20471;-75
2024/02/21 09:01:06;;;;;;;4.73;2.60;;;7.90;99.90;;;;;;5042871;28;20240;-75
2024/02/21 09:03:36;;;;;;;8.27;3.13;;;8.00;99.90;;;;;;5058380;28;20466;-75
2024/02/21 09:06:01;;;;;;;9.43;2.90;;;8.10;99.90;;;;;;5043041;28;20520;-75
2024/02/21 09:08:27;;;;;;;5.80;3.20;;;8.10;99.90;;;;;;5043048;28;20862;-75
2024/02/21 09:10:53;;;;;;;3.83;3.30;;;8.10;99.90;;;;;;5046117;28;20228;-76
2024/02/21 09:13:19;;;;;;;9.57;3.40;;;8.20;99.90;;;;;;5044762;28;20216;-75
2024/02/21 09:15:44;;;;;;;4.50;3.70;;;8.20;99.90;;;;;;5059894;28;20508;-75
2024/02/21 09:18:10;;;;;;;6.00;2.80;;;8.30;99.90;;;;;;5043248;28;20238;-76
2024/02/21 09:20:36;;;;;;;4.13;3.30;;;8.30;99.90;;;;;;5029514;28;20232;-75
2024/02/21 09:23:02;;;;;;;5.20;3.20;;;8.30;99.90;;;;;;5047846;28;20674;-75
2024/02/21 09:25:27;;;;;;;4.87;3.00;;;8.40;99.90;;;;;;5045282;28;20212;-75
2024/02/21 09:27:58;;;;;;;5.83;3.43;;;8.40;99.90;;;;;;5043890;28;20240;-74
2024/02/21 09:30:24;;;;;;;4.80;2.93;;;8.50;99.90;;;;;;5044224;28;20354;-74
2024/02/21 09:32:49;;;;;;;6.70;3.27;;;8.60;99.90;;;;;;5046733;28;20534;-75
2024/02/21 09:35:15;;;;;;;15.23;3.73;;;8.60;99.90;;;;;;5046470;28;20559;-75
2024/02/21 09:37:41;;;;;;;6.50;3.20;;;8.70;99.90;;;;;;5043667;28;20326;-75
2024/02/21 09:40:07;;;;;;;11.00;5.70;;;8.70;99.90;;;;;;5046382;28;20211;-75
2024/02/21 09:42:42;;;;;;;8.73;6.27;;;8.80;99.90;;;;;;5031316;28;20243;-75
2024/02/21 09:45:23;;;;;;;7.70;4.50;;;8.90;99.90;;;;;;5046084;28;20519;-75
2024/02/21 09:48:07;;;;;;;10.23;4.90;;;8.90;99.90;;;;;;5060860;28;20538;-75
2024/02/21 09:50:36;;;;;;;6.30;4.23;;;9.00;99.90;;;;;;5045035;28;20465;-75
2024/02/21 09:53:04;;;;;;;6.23;4.27;;;9.10;99.90;;;;;;5046881;28;20467;-75
2024/02/21 09:55:34;;;;;;;5.63;3.27;;;9.20;99.90;;;;;;5040512;28;20523;-74
2024/02/21 09:58:01;;;;;;;6.13;4.07;;;9.10;99.90;;;;;;5043741;28;20454;-75
2024/02/21 10:00:27;;;;;;;9.20;7.07;;;9.20;99.90;;;;;;5059714;28;20474;-74
2024/02/21 10:02:53;;;;;;;8.37;5.87;;;9.30;99.90;;;;;;5058125;28;20470;-75
2024/02/21 10:05:19;;;;;;;10.40;4.10;;;9.30;99.90;;;;;;5025910;28;20458;-74
2024/02/21 10:07:45;;;;;;;6.57;3.67;;;9.40;99.90;;;;;;5044363;28;20477;-75
2024/02/21 10:10:11;;;;;;;5.07;3.23;;;9.40;99.90;;;;;;5057021;28;20220;-75
2024/02/21 10:12:47;;;;;;;8.27;4.20;;;9.40;99.90;;;;;;5041564;28;20238;-75
2024/02/21 10:15:12;;;;;;;5.33;2.90;;;9.50;99.90;;;;;;5044811;28;20596;-75
2024/02/21 10:17:38;;;;;;;4.50;3.50;;;9.50;99.90;;;;;;5041997;28;20456;-75
2024/02/21 10:20:11;;;;;;;7.57;3.70;;;9.50;99.90;;;;;;5044361;28;20231;-76
2024/02/21 10:22:39;;;;;;;5.87;3.03;;;9.50;99.90;;;;;;5043300;28;20230;-75
2024/02/21 10:25:12;;;;;;;5.87;3.63;;;9.50;99.90;;;;;;5043054;28;20466;-75
2024/02/21 10:27:39;;;;;;;7.60;3.37;;;9.50;99.90;;;;;;5028072;28;20458;-75
2024/02/21 10:30:13;;;;;;;5.30;3.47;;;9.50;99.90;;;;;;5063137;28;20459;-75
2024/02/21 10:32:52;;;;;;;6.30;3.40;;;9.60;99.90;;;;;;5044685;28;20545;-75
2024/02/21 10:35:27;;;;;;;7.00;3.03;;;9.60;99.90;;;;;;5040992;28;20466;-75
2024/02/21 10:37:55;;;;;;;3.10;2.73;;;9.70;99.90;;;;;;5041820;28;20523;-75
2024/02/21 10:40:30;;;;;;;4.00;3.17;;;9.70;99.90;;;;;;5040349;28;20466;-75
2024/02/21 10:43:01;;;;;;;4.00;3.37;;;9.70;99.90;;;;;;5043303;28;20465;-75
2024/02/21 10:45:31;;;;;;;3.80;2.67;;;9.70;99.90;;;;;;5061324;28;20880;-75
2024/02/21 10:48:11;;;;;;;8.50;2.67;;;9.70;99.90;;;;;;5047789;28;20461;-76
2024/02/21 10:51:19;;;;;;;4.57;2.43;;;9.80;99.90;;;;;;5046240;28;20470;-75
2024/02/21 10:53:46;;;;;;;3.77;2.30;;;9.80;99.90;;;;;;5000078;28;20459;-75
2024/02/21 10:56:30;;;;;;;5.83;2.70;;;9.80;99.90;;;;;;5032251;28;21024;-75
2024/02/21 10:59:00;;;;;;;2.30;1.70;;;9.80;99.90;;;;;;5045988;28;20463;-76
2024/02/21 11:01:29;;;;;;;9.80;2.40;;;9.80;99.90;;;;;;5040424;28;20482;-75
2024/02/21 11:03:57;;;;;;;2.87;2.00;;;9.90;99.90;;;;;;5043185;28;20486;-75
2024/02/21 11:06:24;;;;;;;2.73;2.00;;;9.90;99.90;;;;;;5042294;28;20504;-75
2024/02/21 11:09:00;;;;;;;5.83;2.57;;;9.90;99.90;;;;;;5042642;28;20535;-75
2024/02/21 11:11:26;;;;;;;3.83;2.40;;;10.00;99.90;;;;;;5040067;28;20466;-75
2024/02/21 11:13:51;;;;;;;6.50;3.03;;;9.90;99.90;;;;;;5039398;28;20526;-76
2024/02/21 11:16:23;;;;;;;5.83;2.93;;;10.00;99.90;;;;;;5040507;28;20220;-75
2024/02/21 11:18:49;;;;;;;6.53;2.87;;;10.00;99.90;;;;;;5042129;28;20216;-75
2024/02/21 11:21:15;;;;;;;3.53;2.93;;;10.00;99.90;;;;;;5027292;28;20458;-75
2024/02/21 11:23:41;;;;;;;4.23;2.43;;;10.00;99.90;;;;;;5046008;28;20470;-75
2024/02/21 11:26:19;;;;;;;4.60;2.70;;;10.00;99.90;;;;;;5042367;28;20836;-75
2024/02/21 11:28:44;;;;;;;6.07;3.33;;;10.00;99.90;;;;;;5027384;28;20235;-75
2024/02/21 11:31:14;;;;;;;7.30;3.00;;;10.00;99.90;;;;;;5047613;28;20504;-75
2024/02/21 11:33:43;;;;;;;4.33;2.90;;;10.10;99.90;;;;;;5044892;28;20219;-75
2024/02/21 11:36:09;;;;;;;7.70;3.10;;;10.10;99.90;;;;;;5027413;28;20500;-75
2024/02/21 11:38:35;;;;;;;6.83;3.10;;;10.10;99.90;;;;;;5044052;28;20443;-75
2024/02/21 11:41:01;;;;;;;4.07;3.00;;;10.10;99.90;;;;;;5051171;28;20447;-75
2024/02/21 11:43:27;;;;;;;4.03;2.90;;;10.10;99.90;;;;;;5045750;28;20254;-74
2024/02/21 11:46:00;;;;;;;9.30;3.43;;;10.10;99.90;;;;;;5048308;28;21149;-75
2024/02/21 11:48:27;;;;;;;6.30;3.37;;;10.10;99.90;;;;;;5044624;28;20204;-75
2024/02/21 11:50:56;;;;;;;10.03;3.97;;;10.10;99.90;;;;;;5044531;28;20458;-75
2024/02/21 11:53:22;;;;;;;4.40;3.40;;;10.20;99.90;;;;;;5043514;28;20473;-76
2024/02/21 11:55:48;;;;;;;6.27;3.10;;;10.10;99.90;;;;;;5048254;28;20466;-74
2024/02/21 11:58:15;;;;;;;6.43;3.50;;;10.10;99.90;;;;;;5044760;28;20891;-75
2024/02/21 12:00:41;;;;;;;14.00;3.80;;;10.20;99.90;;;;;;5045967;28;20233;-75
2024/02/21 12:03:07;;;;;;;7.17;3.40;;;10.20;99.90;;;;;;5047890;28;20527;-75
2024/02/21 12:05:33;;;;;;;5.00;3.87;;;10.20;99.90;;;;;;5046834;28;20223;-75
2024/02/21 12:07:59;;;;;;;5.83;3.20;;;10.20;99.90;;;;;;5047768;28;20480;-75
2024/02/21 12:10:27;;;;;;;4.47;3.60;;;10.10;99.90;;;;;;5058771;28;20809;-75
2024/02/21 12:12:58;;;;;;;5.83;4.10;;;10.20;99.90;;;;;;5047501;28;20470;-75
2024/02/21 12:15:23;;;;;;;5.53;3.90;;;10.20;99.90;;;;;;5046658;28;20459;-75
2024/02/21 12:17:51;;;;;;;5.53;3.47;;;10.20;99.90;;;;;;5047608;28;20516;-75
2024/02/21 12:20:17;;;;;;;10.30;4.20;;;10.20;99.90;;;;;;5044650;28;20324;-75
2024/02/21 12:22:43;;;;;;;4.67;3.40;;;10.20;99.90;;;;;;5045593;28;20466;-75
2024/02/21 12:25:19;;;;;;;4.23;3.83;;;10.30;99.90;;;;;;5044326;28;20219;-76
2024/02/21 12:27:49;;;;;;;5.17;3.70;;;10.30;99.90;;;;;;5042679;28;20223;-75
2024/02/21 12:30:15;;;;;;;5.50;3.77;;;10.30;99.90;;;;;;5043476;28;20486;-75
2024/02/21 12:32:41;;;;;;;8.00;3.93;;;10.30;99.90;;;;;;5046691;28;21025;-75
2024/02/21 12:35:07;;;;;;;6.40;3.70;;;10.30;99.90;;;;;;5032324;28;20488;-75
2024/02/21 12:37:33;;;;;;;7.80;3.87;;;10.30;99.90;;;;;;5046428;28;20255;-75
2024/02/21 12:39:59;;;;;;;6.33;4.00;;;10.30;99.90;;;;;;5043459;28;20487;-75
2024/02/21 12:42:25;;;;;;;3.80;3.20;;;10.20;99.90;;;;;;5044061;28;20212;-75
2024/02/21 12:44:52;;;;;;;4.30;3.53;;;10.30;99.90;;;;;;5044366;28;20894;-75
2024/02/21 12:47:19;;;;;;;8.43;3.20;;;10.30;99.90;;;;;;5041513;28;20516;-75
2024/02/21 12:49:45;;;;;;;5.10;3.83;;;10.30;99.90;;;;;;5047752;28;20488;-75
2024/02/21 12:52:11;;;;;;;13.97;8.13;;;10.20;99.90;;;;;;5046217;28;20482;-75
2024/02/21 12:54:38;;;;;;;9.73;5.10;;;10.30;99.90;;;;;;5025776;28;20486;-75